Terminal Aerodrome Forecast
Issued by NWS

Home | Current Version | Previous Version | Text Only | Print | Product List | Glossary On
Versions: 1 2 3 4 5 6 7 8 9 10 11 12 13 14 15 16 17 18 19 20 21 22 23 24 25 26 27 28 29 30 31 32 33 34 35 36 37 38 39 40 41 42 43 44 45 46 47 48 49 50
000
FTUS41 KCTP 231140
TAFJST
TAF
KJST 231140Z 2312/2412 21003KT 5SM BR OVC010
     FM231400 13004KT 5SM BR OVC015
     FM231600 11006KT P6SM BKN025
     FM231800 11005KT P6SM BKN035
     FM240500 14005KT 5SM BR BKN025
     FM240900 12004KT 1/2SM FG OVC003=

USA.gov is the U.S. government's official web portal to all federal, state and local government web resources and services.